< < Back
Terminal Aerodrome Forecast


Current Version              Previous Versions:   1  2  3  4  5  6  7  8  9  

Terminal Aerodrome Forecast

745
FTUS42 KMLB 011700 RRA
TAFDAB
TAF
KDAB 011746Z 0118/0218 11008KT P6SM VCSH SCT040
     FM020000 12007KT P6SM FEW040 SCT250
     FM020200 00000KT P6SM FEW040=



Latest METAR

669
SAUS80 KWBC 012000 RRG
MTRDAB
METAR KDAB 011953Z 09008KT 10SM FEW040 FEW100 FEW250 32/21 A3007 RMK AO2
SLP183 T03170206


USA.gov is the U.S. government's official web portal to all federal, state and local government web resources and services.